Time;durP1;ratioP1;P1;durP2;ratioP2;P2;SDS_P1;SDS_P2;PMS_P1;PMS_P2;Temp;Humidity;BMP_temperature;BMP_pressure;BME280_temperature;BME280_humidity;BME280_pressure;Samples;Min_cycle;Max_cycle;Signal;HPM_P1;HPM_P2
2022/05/08 00:01:38;;;;;;;;;;;;;;;;;;5113752;28;19919;-76
2022/05/08 00:04:04;;;;;;;;;;;;;;;;;;5113846;28;19915;-77
2022/05/08 00:06:29;;;;;;;;;;;;;;;;;;5113746;28;20412;-77
2022/05/08 00:08:54;;;;;;;;;;;;;;;;;;5113890;28;19916;-76
2022/05/08 00:11:20;;;;;;;;;;;;;;;;;;5113997;28;19915;-76
2022/05/08 00:13:47;;;;;;;;;;;;;;;;;;5113751;28;19919;-76
2022/05/08 00:16:13;;;;;;;;;;;;;;;;;;5113377;28;20314;-76
2022/05/08 00:18:38;;;;;;;;;;;;;;;;;;5113575;28;20015;-77
2022/05/08 00:21:05;;;;;;;;;;;;;;;;;;5113833;28;20261;-76
2022/05/08 00:23:30;;;;;;;;;;;;;;;;;;5095197;28;20035;-77
2022/05/08 00:25:56;;;;;;;;;;;;;;;;;;5095441;28;20420;-78
2022/05/08 00:28:21;;;;;;;;;;;;;;;;;;5114113;28;19964;-76
2022/05/08 00:30:46;;;;;;;;;;;;;;;;;;5113745;28;19923;-76
2022/05/08 00:33:12;;;;;;;;;;;;;;;;;;5117668;28;20368;-76
2022/05/08 00:35:37;;;;;;;;;;;;;;;;;;5117452;28;19916;-76
2022/05/08 00:38:02;;;;;;;;;;;;;;;;;;5117312;28;20319;-76
2022/05/08 00:40:30;;;;;;;;;;;;;;;;;;5117242;28;19915;-77
2022/05/08 00:42:56;;;;;;;;;;;;;;;;;;5117436;28;19915;-76
2022/05/08 00:45:21;;;;;;;;;;;;;;;;;;5116872;28;19927;-76
2022/05/08 00:47:46;;;;;;;;;;;;;;;;;;5098918;28;20369;-77
2022/05/08 00:50:12;;;;;;;;;;;;;;;;;;5117284;28;19920;-76
2022/05/08 00:52:37;;;;;;;;;;;;;;;;;;5117222;28;19963;-76
2022/05/08 00:55:03;;;;;;;;;;;;;;;;;;5116650;28;20020;-76
2022/05/08 00:57:29;;;;;;;;;;;;;;;;;;5098727;28;20500;-76
2022/05/08 01:00:00;;;;;;;;;;;;;;;;;;5116482;28;19920;-76
2022/05/08 01:02:26;;;;;;;;;;;;;;;;;;5116681;28;20282;-76
2022/05/08 01:04:51;;;;;;;;;;;;;;;;;;5117001;28;19920;-76
2022/05/08 01:07:16;;;;;;;;;;;;;;;;;;5098577;28;19915;-77
2022/05/08 01:09:42;;;;;;;;;;;;;;;;;;5116771;28;19920;-76
2022/05/08 01:12:08;;;;;;;;;;;;;;;;;;5116736;28;19922;-76
2022/05/08 01:14:33;;;;;;;;;;;;;;;;;;5116753;28;19924;-76
2022/05/08 01:16:59;;;;;;;;;;;;;;;;;;5098605;28;20370;-76
2022/05/08 01:19:24;;;;;;;;;;;;;;;;;;5098146;28;20254;-76
2022/05/08 01:21:49;;;;;;;;;;;;;;;;;;5116733;28;19916;-77
2022/05/08 01:24:20;;;;;;;;;;;;;;;;;;5116721;28;19947;-77
2022/05/08 01:26:46;;;;;;;;;;;;;;;;;;5116557;28;19916;-76
2022/05/08 01:29:11;;;;;;;;;;;;;;;;;;5116449;28;19968;-76
2022/05/08 01:31:36;;;;;;;;;;;;;;;;;;5098275;28;19968;-76
2022/05/08 01:34:02;;;;;;;;;;;;;;;;;;5115709;28;19948;-76
2022/05/08 01:36:27;;;;;;;;;;;;;;;;;;5116205;28;19916;-76
2022/05/08 01:38:55;;;;;;;;;;;;;;;;;;5115925;28;20035;-76
2022/05/08 01:41:20;;;;;;;;;;;;;;;;;;5097369;28;19915;-76
2022/05/08 01:43:46;;;;;;;;;;;;;;;;;;5115060;28;19920;-75
2022/05/08 01:46:12;;;;;;;;;;;;;;;;;;5097547;28;19969;-76
2022/05/08 01:48:37;;;;;;;;;;;;;;;;;;5116150;28;19916;-76
2022/05/08 01:51:03;;;;;;;;;;;;;;;;;;5115984;28;19924;-76
2022/05/08 01:53:29;;;;;;;;;;;;;;;;;;5115566;28;19938;-76
2022/05/08 01:55:55;;;;;;;;;;;;;;;;;;5116070;28;20390;-76
2022/05/08 01:58:25;;;;;;;;;;;;;;;;;;5115446;28;20360;-76
2022/05/08 02:00:50;;;;;;;;;;;;;;;;;;5115749;28;20428;-76
2022/05/08 02:03:17;;;;;;;;;;;;;;;;;;5115749;28;19951;-76
2022/05/08 02:05:44;;;;;;;;;;;;;;;;;;5115079;28;21395;-77
2022/05/08 02:08:10;;;;;;;;;;;;;;;;;;5114989;28;20280;-76
2022/05/08 02:10:36;;;;;;;;;;;;;;;;;;5115598;28;19923;-76
2022/05/08 02:13:01;;;;;;;;;;;;;;;;;;5097257;28;19915;-76
2022/05/08 02:15:29;;;;;;;;;;;;;;;;;;5115126;28;20010;-76
2022/05/08 02:18:01;;;;;;;;;;;;;;;;;;5115428;28;19911;-77
2022/05/08 02:20:27;;;;;;;;;;;;;;;;;;5115243;28;20023;-76
2022/05/08 02:22:52;;;;;;;;;;;;;;;;;;5115121;28;20392;-76
2022/05/08 02:25:18;;;;;;;;;;;;;;;;;;5115372;28;19924;-76
2022/05/08 02:27:49;;;;;;;;;;;;;;;;;;5115162;28;19916;-76
2022/05/08 02:30:15;;;;;;;;;;;;;;;;;;5114526;28;19984;-76
2022/05/08 02:32:40;;;;;;;;;;;;;;;;;;5115304;28;19923;-76
2022/05/08 02:35:06;;;;;;;;;;;;;;;;;;5115227;28;19919;-76
2022/05/08 02:37:32;;;;;;;;;;;;;;;;;;5080154;28;19939;-76
2022/05/08 02:39:57;;;;;;;;;;;;;;;;;;5114978;28;20336;-76
2022/05/08 02:42:22;;;;;;;;;;;;;;;;;;5114816;28;19976;-76
2022/05/08 02:44:48;;;;;;;;;;;;;;;;;;5115094;28;19915;-76
2022/05/08 02:47:13;;;;;;;;;;;;;;;;;;5114919;28;19916;-76
2022/05/08 02:49:39;;;;;;;;;;;;;;;;;;5114925;28;19916;-76
2022/05/08 02:52:04;;;;;;;;;;;;;;;;;;5114818;28;19967;-76
2022/05/08 02:54:30;;;;;;;;;;;;;;;;;;5114283;28;19965;-76
2022/05/08 02:59:39;;;;;;;;;;;;;;;;;;5114634;28;19922;-76
2022/05/08 03:02:04;;;;;;;;;;;;;;;;;;5113994;28;19920;-77
2022/05/08 03:04:29;;;;;;;;;;;;;;;;;;5114663;28;19915;-76
2022/05/08 03:06:55;;;;;;;;;;;;;;;;;;5114449;28;19916;-76
2022/05/08 03:09:20;;;;;;;;;;;;;;;;;;5114714;28;19915;-76
2022/05/08 03:11:45;;;;;;;;;;;;;;;;;;5114768;28;20011;-76
2022/05/08 03:14:11;;;;;;;;;;;;;;;;;;5096202;28;19920;-76
2022/05/08 03:16:37;;;;;;;;;;;;;;;;;;5114354;28;20269;-77
2022/05/08 03:19:03;;;;;;;;;;;;;;;;;;5114389;28;19916;-77
2022/05/08 03:21:28;;;;;;;;;;;;;;;;;;5114372;28;19915;-77
2022/05/08 03:23:54;;;;;;;;;;;;;;;;;;5113886;28;19916;-76
2022/05/08 03:26:19;;;;;;;;;;;;;;;;;;5114487;28;19919;-76
2022/05/08 03:28:45;;;;;;;;;;;;;;;;;;5114564;28;19916;-76
2022/05/08 03:31:11;;;;;;;;;;;;;;;;;;5114260;28;19930;-77
2022/05/08 03:33:37;;;;;;;;;;;;;;;;;;5114180;28;19978;-76
2022/05/08 03:36:03;;;;;;;;;;;;;;;;;;5114189;28;20293;-76
2022/05/08 03:38:28;;;;;;;;;;;;;;;;;;5114434;28;19941;-76
2022/05/08 03:40:54;;;;;;;;;;;;;;;;;;5095936;28;20011;-76
2022/05/08 03:43:21;;;;;;;;;;;;;;;;;;5096110;28;19964;-77
2022/05/08 03:45:48;;;;;;;;;;;;;;;;;;5113817;28;19916;-77
2022/05/08 03:48:14;;;;;;;;;;;;;;;;;;5095303;28;19965;-76
2022/05/08 03:50:40;;;;;;;;;;;;;;;;;;5095764;28;19916;-76
2022/05/08 03:53:05;;;;;;;;;;;;;;;;;;5095948;28;20010;-77
2022/05/08 03:55:30;;;;;;;;;;;;;;;;;;5113315;28;19923;-76
2022/05/08 03:57:56;;;;;;;;;;;;;;;;;;5114084;28;19916;-77
2022/05/08 04:00:21;;;;;;;;;;;;;;;;;;5095048;28;19920;-76
2022/05/08 04:02:47;;;;;;;;;;;;;;;;;;5113593;28;19920;-76
2022/05/08 04:05:12;;;;;;;;;;;;;;;;;;5113851;28;20304;-76
2022/05/08 04:07:38;;;;;;;;;;;;;;;;;;5116367;28;19943;-76
2022/05/08 04:10:03;;;;;;;;;;;;;;;;;;5118124;28;19961;-76
2022/05/08 04:12:29;;;;;;;;;;;;;;;;;;5117826;28;19916;-76
2022/05/08 04:14:54;;;;;;;;;;;;;;;;;;5099720;28;20408;-77
2022/05/08 04:17:20;;;;;;;;;;;;;;;;;;5117866;28;19916;-76
2022/05/08 04:19:49;;;;;;;;;;;;;;;;;;5117963;28;20265;-76
2022/05/08 04:24:16;;;;;;;;;;;;;;;;;;5099714;28;19916;-76
2022/05/08 04:25:00;;;;;;;;;;;;;;;;;;5118191;28;20270;-76
2022/05/08 04:27:26;;;;;;;;;;;;;;;;;;5117736;28;20324;-76
2022/05/08 04:29:52;;;;;;;;;;;;;;;;;;5099266;28;19919;-76
2022/05/08 04:32:17;;;;;;;;;;;;;;;;;;5117556;28;20297;-77
2022/05/08 04:34:42;;;;;;;;;;;;;;;;;;5117483;28;19924;-76
2022/05/08 04:37:09;;;;;;;;;;;;;;;;;;5117277;28;19915;-77
2022/05/08 04:39:35;;;;;;;;;;;;;;;;;;5116969;28;19923;-77
2022/05/08 04:42:01;;;;;;;;;;;;;;;;;;5117318;28;19916;-77
2022/05/08 04:44:27;;;;;;;;;;;;;;;;;;5116785;28;19916;-76
2022/05/08 04:46:52;;;;;;;;;;;;;;;;;;5099181;28;20379;-77
2022/05/08 04:49:17;;;;;;;;;;;;;;;;;;5116819;28;19922;-76
2022/05/08 04:51:43;;;;;;;;;;;;;;;;;;5117365;28;19923;-76
2022/05/08 04:54:08;;;;;;;;;;;;;;;;;;5117009;28;20018;-77
2022/05/08 04:56:33;;;;;;;;;;;;;;;;;;5116847;28;19923;-77
2022/05/08 04:58:59;;;;;;;;;;;;;;;;;;5116592;28;19994;-77
2022/05/08 05:01:24;;;;;;;;;;;;;;;;;;5116704;28;19920;-76
2022/05/08 05:03:50;;;;;;;;;;;;;;;;;;5117093;28;19916;-77
2022/05/08 05:06:15;;;;;;;;;;;;;;;;;;5098736;28;19923;-77
2022/05/08 05:08:41;;;;;;;;;;;;;;;;;;5116856;28;19969;-77
2022/05/08 05:11:10;;;;;;;;;;;;;;;;;;5098244;28;19920;-76
2022/05/08 05:13:38;;;;;;;;;;;;;;;;;;5116931;28;20270;-76
2022/05/08 05:16:04;;;;;;;;;;;;;;;;;;5116188;28;19970;-76
2022/05/08 05:18:29;;;;;;;;;;;;;;;;;;5098342;28;19915;-76
2022/05/08 05:20:55;;;;;;;;;;;;;;;;;;5116716;28;20008;-77
2022/05/08 05:23:20;;;;;;;;;;;;;;;;;;5116588;28;19922;-76
2022/05/08 05:25:45;;;;;;;;;;;;;;;;;;5116473;28;19923;-76
2022/05/08 05:28:11;;;;;;;;;;;;;;;;;;5116268;28;19916;-77
2022/05/08 05:30:36;;;;;;;;;;;;;;;;;;5081152;28;19981;-76
2022/05/08 05:33:02;;;;;;;;;;;;;;;;;;5116585;28;19943;-77
2022/05/08 05:35:27;;;;;;;;;;;;;;;;;;5115865;28;20014;-77
2022/05/08 05:37:52;;;;;;;;;;;;;;;;;;5098132;28;19916;-77
2022/05/08 05:40:17;;;;;;;;;;;;;;;;;;5116158;28;19915;-77
2022/05/08 05:42:43;;;;;;;;;;;;;;;;;;5116360;28;19922;-77
2022/05/08 05:45:08;;;;;;;;;;;;;;;;;;5116151;28;19915;-77
2022/05/08 05:50:34;;;;;;;;;;;;;;;;;;5073121;28;19965;-77
2022/05/08 05:53:00;;;;;;;;;;;;;;;;;;5106862;28;20319;-77
2022/05/08 05:55:25;;;;;;;;;;;;;;;;;;5097323;28;19920;-77
2022/05/08 05:57:51;;;;;;;;;;;;;;;;;;5115906;28;20679;-77
2022/05/08 06:00:17;;;;;;;;;;;;;;;;;;5114179;28;20385;-77
2022/05/08 06:02:43;;;;;;;;;;;;;;;;;;5115292;28;19923;-77
2022/05/08 06:05:13;;;;;;;;;;;;;;;;;;5115818;28;19976;-77
2022/05/08 06:07:38;;;;;;;;;;;;;;;;;;5115552;28;20429;-77
2022/05/08 06:10:05;;;;;;;;;;;;;;;;;;5115797;28;19962;-77
2022/05/08 06:12:30;;;;;;;;;;;;;;;;;;5115890;28;20273;-77
2022/05/08 06:14:56;;;;;;;;;;;;;;;;;;5097418;28;20014;-77
2022/05/08 06:17:21;;;;;;;;;;;;;;;;;;5115535;28;19919;-77
2022/05/08 06:19:47;;;;;;;;;;;;;;;;;;5114840;28;19915;-78
2022/05/08 06:22:12;;;;;;;;;;;;;;;;;;5114903;28;20381;-77
2022/05/08 06:24:38;;;;;;;;;;;;;;;;;;5115481;28;20373;-77
2022/05/08 06:27:04;;;;;;;;;;;;;;;;;;5115521;28;19920;-77
2022/05/08 06:29:29;;;;;;;;;;;;;;;;;;5096610;28;19938;-77
2022/05/08 06:31:55;;;;;;;;;;;;;;;;;;5114674;28;19960;-76
2022/05/08 06:34:20;;;;;;;;;;;;;;;;;;5115174;28;19959;-76
2022/05/08 06:36:46;;;;;;;;;;;;;;;;;;5115155;28;20380;-77
2022/05/08 06:39:13;;;;;;;;;;;;;;;;;;5114824;28;19923;-76
2022/05/08 06:41:38;;;;;;;;;;;;;;;;;;5115197;28;20010;-76
2022/05/08 06:44:03;;;;;;;;;;;;;;;;;;5115008;28;19946;-76
2022/05/08 06:46:32;;;;;;;;;;;;;;;;;;5114568;28;19938;-76
2022/05/08 06:48:57;;;;;;;;;;;;;;;;;;5114870;28;19915;-77
2022/05/08 06:51:23;;;;;;;;;;;;;;;;;;5114688;28;20296;-78
2022/05/08 06:53:48;;;;;;;;;;;;;;;;;;5114299;28;20289;-78
2022/05/08 06:56:16;;;;;;;;;;;;;;;;;;5114662;28;19984;-77
2022/05/08 07:01:34;;;;;;;;;;;;;;;;;;5094289;28;20246;-78
2022/05/08 07:04:00;;;;;;;;;;;;;;;;;;5076206;28;19916;-77
2022/05/08 07:06:25;;;;;;;;;;;;;;;;;;5093861;28;20321;-77
2022/05/08 07:08:50;;;;;;;;;;;;;;;;;;5094240;28;19962;-76
2022/05/08 07:11:16;;;;;;;;;;;;;;;;;;5114287;28;19922;-78
2022/05/08 07:13:41;;;;;;;;;;;;;;;;;;5114511;28;20288;-78
2022/05/08 07:16:07;;;;;;;;;;;;;;;;;;5114107;28;19919;-77
2022/05/08 07:18:33;;;;;;;;;;;;;;;;;;5113685;28;20018;-77
2022/05/08 07:20:58;;;;;;;;;;;;;;;;;;5096129;28;19965;-77
2022/05/08 07:23:23;;;;;;;;;;;;;;;;;;5114320;28;19941;-77
2022/05/08 07:25:49;;;;;;;;;;;;;;;;;;5114422;28;20429;-78
2022/05/08 07:28:14;;;;;;;;;;;;;;;;;;5114187;28;19915;-78
2022/05/08 07:30:41;;;;;;;;;;;;;;;;;;5096473;28;19919;-77
2022/05/08 07:33:06;;;;;;;;;;;;;;;;;;5113576;28;19920;-78
2022/05/08 07:38:17;;;;;;;;;;;;;;;;;;5114276;28;19916;-77
2022/05/08 07:40:47;;;;;;;;;;;;;;;;;;5113385;28;19976;-77
2022/05/08 07:43:13;;;;;;;;;;;;;;;;;;5114053;28;19965;-78
2022/05/08 07:45:38;;;;;;;;;;;;;;;;;;5114099;28;19915;-77
2022/05/08 07:48:04;;;;;;;;;;;;;;;;;;5113959;28;19922;-77
2022/05/08 07:50:29;;;;;;;;;;;;;;;;;;5114280;28;20010;-74
2022/05/08 07:52:54;;;;;;;;;;;;;;;;;;5114188;28;19915;-75
2022/05/08 07:55:20;;;;;;;;;;;;;;;;;;5095787;28;19926;-76
2022/05/08 07:57:45;;;;;;;;;;;;;;;;;;5113764;28;19916;-76
2022/05/08 08:00:11;;;;;;;;;;;;;;;;;;5113832;28;19916;-76
2022/05/08 08:02:39;;;;;;;;;;;;;;;;;;5113978;28;19927;-76
2022/05/08 08:05:05;;;;;;;;;;;;;;;;;;5095984;28;19916;-76
2022/05/08 08:07:30;;;;;;;;;;;;;;;;;;5096787;28;19915;-76
2022/05/08 08:09:56;;;;;;;;;;;;;;;;;;5114004;28;19915;-76
2022/05/08 08:12:22;;;;;;;;;;;;;;;;;;5113907;28;19923;-75
2022/05/08 08:14:47;;;;;;;;;;;;;;;;;;5113291;28;19962;-75
2022/05/08 08:17:13;;;;;;;;;;;;;;;;;;5113702;28;20012;-77
2022/05/08 08:19:38;;;;;;;;;;;;;;;;;;5113949;28;20076;-75
2022/05/08 08:22:04;;;;;;;;;;;;;;;;;;5113990;28;20341;-76
2022/05/08 08:24:29;;;;;;;;;;;;;;;;;;5113924;28;19916;-75
2022/05/08 08:26:55;;;;;;;;;;;;;;;;;;5113920;28;19953;-76
2022/05/08 08:29:20;;;;;;;;;;;;;;;;;;5113487;28;20303;-76
2022/05/08 08:31:45;;;;;;;;;;;;;;;;;;5113118;28;20002;-76
2022/05/08 08:34:10;;;;;;;;;;;;;;;;;;5113677;28;19920;-76
2022/05/08 08:36:36;;;;;;;;;;;;;;;;;;5113860;28;20353;-77
2022/05/08 08:39:02;;;;;;;;;;;;;;;;;;5095277;28;19920;-76
2022/05/08 08:41:30;;;;;;;;;;;;;;;;;;5112895;28;19916;-76
2022/05/08 08:49:31;;;;;;;;;;;;;;;;;;5113391;28;20010;-76
2022/05/08 08:51:58;;;;;;;;;;;;;;;;;;5095219;28;19916;-76
2022/05/08 08:54:23;;;;;;;;;;;;;;;;;;5117368;28;19926;-73
2022/05/08 08:56:49;;;;;;;;;;;;;;;;;;5098872;28;19916;-76
2022/05/08 08:59:14;;;;;;;;;;;;;;;;;;5115679;28;19969;-75
2022/05/08 09:01:43;;;;;;;;;;;;;;;;;;5096743;28;19920;-76
2022/05/08 09:04:09;;;;;;;;;;;;;;;;;;5115680;28;20006;-76
2022/05/08 09:06:41;;;;;;;;;;;;;;;;;;5117157;28;19954;-76
2022/05/08 09:09:26;;;;;;;;;;;;;;;;;;5116897;28;20015;-76
2022/05/08 09:11:53;;;;;;;;;;;;;;;;;;5116951;28;19916;-76
2022/05/08 09:14:32;;;;;;;;;;;;;;;;;;5098681;28;20289;-75
2022/05/08 09:16:58;;;;;;;;;;;;;;;;;;5116772;28;20010;-75
2022/05/08 09:19:40;;;;;;;;;;;;;;;;;;5114476;28;19915;-75
2022/05/08 09:22:12;;;;;;;;;;;;;;;;;;5097282;28;19923;-75
2022/05/08 09:24:50;;;;;;;;;;;;;;;;;;5114349;28;19937;-75
2022/05/08 09:27:16;;;;;;;;;;;;;;;;;;5114174;28;20281;-75
2022/05/08 09:29:42;;;;;;;;;;;;;;;;;;5095688;28;20365;-75
2022/05/08 09:32:07;;;;;;;;;;;;;;;;;;5114372;28;19945;-76
2022/05/08 09:34:51;;;;;;;;;;;;;;;;;;5116195;28;19916;-76
2022/05/08 09:37:16;;;;;;;;;;;;;;;;;;5116358;28;19922;-75
2022/05/08 09:39:44;;;;;;;;;;;;;;;;;;5116187;28;19922;-76
2022/05/08 09:42:29;;;;;;;;;;;;;;;;;;5116157;28;19994;-76
2022/05/08 09:45:07;;;;;;;;;;;;;;;;;;5115731;28;20590;-75
2022/05/08 09:47:48;;;;;;;;;;;;;;;;;;5097644;28;19920;-76
2022/05/08 09:50:14;;;;;;;;;;;;;;;;;;5116081;28;19915;-76
2022/05/08 09:52:40;;;;;;;;;;;;;;;;;;5097142;28;20377;-76
2022/05/08 09:55:08;;;;;;;;;;;;;;;;;;5097615;28;19968;-76
2022/05/08 09:57:34;;;;;;;;;;;;;;;;;;5097551;28;19920;-76
2022/05/08 10:00:00;;;;;;;;;;;;;;;;;;5115143;28;20015;-76
2022/05/08 10:02:26;;;;;;;;;;;;;;;;;;5115688;28;19951;-76
2022/05/08 10:04:52;;;;;;;;;;;;;;;;;;5114341;28;20457;-76
2022/05/08 10:07:18;;;;;;;;;;;;;;;;;;5097452;28;20022;-76
2022/05/08 10:15:33;;;;;;;;;;;;;;;;;;5115482;28;20018;-76
2022/05/08 10:18:17;;;;;;;;;;;;;;;;;;5115148;28;20405;-76
2022/05/08 10:20:59;;;;;;;;;;;;;;;;;;5115527;28;19920;-76
2022/05/08 10:23:37;;;;;;;;;;;;;;;;;;5115449;28;19916;-76
2022/05/08 10:26:12;;;;;;;;;;;;;;;;;;5115296;28;19939;-76
2022/05/08 10:29:15;;;;;;;;;;;;;;;;;;5115462;28;19916;-77
2022/05/08 10:31:45;;;;;;;;;;;;;;;;;;5032193;28;19917;-76
2022/05/08 10:34:11;;;;;;;;;;;;;;;;;;5031885;28;20350;-77
2022/05/08 10:36:36;;;;;;;;;;;;;;;;;;5063254;28;19923;-76
2022/05/08 10:39:20;;;;;;;;;;;;;;;;;;5094601;28;19920;-76
2022/05/08 10:41:46;;;;;;;;;;;;;;;;;;5094846;28;19922;-76
2022/05/08 10:44:30;;;;;;;;;;;;;;;;;;5094748;28;20011;-77
2022/05/08 10:47:16;;;;;;;;;;;;;;;;;;5094972;28;19916;-76
2022/05/08 10:49:41;;;;;;;;;;;;;;;;;;5094410;28;19916;-77
2022/05/08 10:52:07;;;;;;;;;;;;;;;;;;5076732;28;19927;-77
2022/05/08 10:54:33;;;;;;;;;;;;;;;;;;5114935;28;20385;-76
2022/05/08 10:56:58;;;;;;;;;;;;;;;;;;5114385;28;19984;-76
2022/05/08 10:59:43;;;;;;;;;;;;;;;;;;5114316;28;19922;-76
2022/05/08 11:02:08;;;;;;;;;;;;;;;;;;5113232;28;20319;-76
2022/05/08 11:04:49;;;;;;;;;;;;;;;;;;5111844;28;20007;-75
2022/05/08 11:07:20;;;;;;;;;;;;;;;;;;5095623;28;20019;-75
2022/05/08 11:09:46;;;;;;;;;;;;;;;;;;5113818;28;19916;-76
2022/05/08 11:12:11;;;;;;;;;;;;;;;;;;5112716;28;19923;-76
2022/05/08 11:14:36;;;;;;;;;;;;;;;;;;5110345;28;20006;-75
2022/05/08 11:17:13;;;;;;;;;;;;;;;;;;5114102;28;19920;-75
2022/05/08 11:19:51;;;;;;;;;;;;;;;;;;5113069;28;20262;-76
2022/05/08 11:22:17;;;;;;;;;;;;;;;;;;5113014;28;20403;-76
2022/05/08 11:24:45;;;;;;;;;;;;;;;;;;5114278;28;19920;-75
2022/05/08 11:27:13;;;;;;;;;;;;;;;;;;5113577;28;19916;-75
2022/05/08 11:29:38;;;;;;;;;;;;;;;;;;5114177;28;19963;-75
2022/05/08 11:38:03;;;;;;;;;;;;;;;;;;5113795;28;19959;-76
2022/05/08 11:40:29;;;;;;;;;;;;;;;;;;5114006;28;20079;-77
2022/05/08 11:42:54;;;;;;;;;;;;;;;;;;5114155;28;19911;-76
2022/05/08 11:45:20;;;;;;;;;;;;;;;;;;5113580;28;19923;-76
2022/05/08 11:47:53;;;;;;;;;;;;;;;;;;5114194;28;20281;-76
2022/05/08 11:50:19;;;;;;;;;;;;;;;;;;5114784;28;19969;-75
2022/05/08 11:52:47;;;;;;;;;;;;;;;;;;5113626;28;20383;-78
2022/05/08 11:55:13;;;;;;;;;;;;;;;;;;5095545;28;19919;-77
2022/05/08 11:57:45;;;;;;;;;;;;;;;;;;5114046;28;20292;-78
2022/05/08 12:00:12;;;;;;;;;;;;;;;;;;5110977;28;19970;-78
2022/05/08 12:02:47;;;;;;;;;;;;;;;;;;5093858;28;20435;-78
2022/05/08 12:05:21;;;;;;;;;;;;;;;;;;5093668;28;19916;-77
2022/05/08 12:07:47;;;;;;;;;;;;;;;;;;5075144;28;19916;-77
2022/05/08 12:10:16;;;;;;;;;;;;;;;;;;5075538;28;19920;-78
2022/05/08 12:12:42;;;;;;;;;;;;;;;;;;5094056;28;19916;-78
2022/05/08 12:15:08;;;;;;;;;;;;;;;;;;5093686;28;19920;-77
2022/05/08 12:17:39;;;;;;;;;;;;;;;;;;5115060;28;19923;-77
2022/05/08 12:20:08;;;;;;;;;;;;;;;;;;5113813;28;19940;-78
2022/05/08 12:22:34;;;;;;;;;;;;;;;;;;5113983;28;19939;-77
2022/05/08 12:24:59;;;;;;;;;;;;;;;;;;5113760;28;20369;-76
2022/05/08 12:27:24;;;;;;;;;;;;;;;;;;5114719;28;19916;-76
2022/05/08 12:29:50;;;;;;;;;;;;;;;;;;5099498;28;19916;-77
2022/05/08 12:32:16;;;;;;;;;;;;;;;;;;5117174;28;19916;-77
2022/05/08 12:34:42;;;;;;;;;;;;;;;;;;5099394;28;20014;-77
2022/05/08 12:37:12;;;;;;;;;;;;;;;;;;5116925;28;19947;-77
2022/05/08 12:39:41;;;;;;;;;;;;;;;;;;5117296;28;20003;-76
2022/05/08 12:42:06;;;;;;;;;;;;;;;;;;5117300;28;19915;-77
2022/05/08 12:44:33;;;;;;;;;;;;;;;;;;5117007;28;19916;-77
2022/05/08 12:46:59;;;;;;;;;;;;;;;;;;5098525;28;19988;-77
2022/05/08 12:49:24;;;;;;;;;;;;;;;;;;5115659;28;20389;-77
2022/05/08 12:51:50;;;;;;;;;;;;;;;;;;5115461;28;19916;-77
2022/05/08 12:54:15;;;;;;;;;;;;;;;;;;5116499;28;19923;-78
2022/05/08 12:56:41;;;;;;;;;;;;;;;;;;5116062;28;19924;-77
2022/05/08 13:01:51;;;;;;;;;;;;;;;;;;5115289;28;19920;-77
2022/05/08 13:04:16;;;;;;;;;;;;;;;;;;5098138;28;19939;-77
2022/05/08 13:06:42;;;;;;;;;;;;;;;;;;5116409;28;19916;-77
2022/05/08 13:09:07;;;;;;;;;;;;;;;;;;5116598;28;19920;-77
2022/05/08 13:11:34;;;;;;;;;;;;;;;;;;5116722;28;20316;-77
2022/05/08 13:14:00;;;;;;;;;;;;;;;;;;5116299;28;19926;-77
2022/05/08 13:16:25;;;;;;;;;;;;;;;;;;5116569;28;19916;-77
2022/05/08 13:18:52;;;;;;;;;;;;;;;;;;5115094;28;19919;-77
2022/05/08 13:21:17;;;;;;;;;;;;;;;;;;5116455;28;19923;-77
2022/05/08 13:23:42;;;;;;;;;;;;;;;;;;5097921;28;19923;-77
2022/05/08 13:26:08;;;;;;;;;;;;;;;;;;5115328;28;19916;-77
2022/05/08 13:28:34;;;;;;;;;;;;;;;;;;5116359;28;19967;-77
2022/05/08 13:31:00;;;;;;;;;;;;;;;;;;5116358;28;19951;-77
2022/05/08 13:33:25;;;;;;;;;;;;;;;;;;5097636;28;19954;-77
2022/05/08 13:35:54;;;;;;;;;;;;;;;;;;5116141;28;20381;-77
2022/05/08 13:38:20;;;;;;;;;;;;;;;;;;5116159;28;19920;-77
2022/05/08 13:40:48;;;;;;;;;;;;;;;;;;5116238;28;19937;-77
2022/05/08 13:43:14;;;;;;;;;;;;;;;;;;5116049;28;19916;-77
2022/05/08 13:45:40;;;;;;;;;;;;;;;;;;5116105;28;19916;-77
2022/05/08 13:48:05;;;;;;;;;;;;;;;;;;5115979;28;20372;-77
2022/05/08 13:50:31;;;;;;;;;;;;;;;;;;5116354;28;19915;-75
2022/05/08 13:52:56;;;;;;;;;;;;;;;;;;5115518;28;19916;-75
2022/05/08 13:55:21;;;;;;;;;;;;;;;;;;5115693;28;19930;-75
2022/05/08 13:57:48;;;;;;;;;;;;;;;;;;5115945;28;19920;-76
2022/05/08 14:00:15;;;;;;;;;;;;;;;;;;5115506;28;19920;-76
2022/05/08 14:02:41;;;;;;;;;;;;;;;;;;5114310;28;19966;-76
2022/05/08 14:05:07;;;;;;;;;;;;;;;;;;5096681;28;20018;-76
2022/05/08 14:07:35;;;;;;;;;;;;;;;;;;5115576;28;20334;-76
2022/05/08 14:10:01;;;;;;;;;;;;;;;;;;5115819;28;19961;-76
2022/05/08 14:12:26;;;;;;;;;;;;;;;;;;5115192;28;19915;-76
2022/05/08 14:14:51;;;;;;;;;;;;;;;;;;5114906;28;19951;-76
2022/05/08 14:17:20;;;;;;;;;;;;;;;;;;5114950;28;19916;-76
2022/05/08 14:19:45;;;;;;;;;;;;;;;;;;5115411;28;19916;-76
2022/05/08 14:22:10;;;;;;;;;;;;;;;;;;5097217;28;19916;-76
2022/05/08 14:24:36;;;;;;;;;;;;;;;;;;5115598;28;19920;-76
2022/05/08 14:27:01;;;;;;;;;;;;;;;;;;5096733;28;19923;-76
2022/05/08 14:29:26;;;;;;;;;;;;;;;;;;5115247;28;20289;-76
2022/05/08 14:37:19;;;;;;;;;;;;;;;;;;5096079;28;19915;-76
2022/05/08 14:39:45;;;;;;;;;;;;;;;;;;5114586;28;19930;-79
2022/05/08 14:42:11;;;;;;;;;;;;;;;;;;5118142;28;19915;-80
2022/05/08 14:44:36;;;;;;;;;;;;;;;;;;5115377;28;19922;-78
2022/05/08 14:47:01;;;;;;;;;;;;;;;;;;5118449;28;19974;-78
2022/05/08 14:49:27;;;;;;;;;;;;;;;;;;5096465;28;19915;-77
2022/05/08 14:51:53;;;;;;;;;;;;;;;;;;5115321;28;19971;-77
2022/05/08 14:54:19;;;;;;;;;;;;;;;;;;5115487;28;20353;-78
2022/05/08 14:56:44;;;;;;;;;;;;;;;;;;5113749;28;20007;-78
2022/05/08 14:59:09;;;;;;;;;;;;;;;;;;5116153;28;19916;-80
2022/05/08 15:01:35;;;;;;;;;;;;;;;;;;5116090;28;21031;-80
2022/05/08 15:04:00;;;;;;;;;;;;;;;;;;5118724;28;19916;-81
2022/05/08 15:06:25;;;;;;;;;;;;;;;;;;5104051;28;19923;-82
2022/05/08 15:08:51;;;;;;;;;;;;;;;;;;5120631;28;19987;-78
2022/05/08 15:11:19;;;;;;;;;;;;;;;;;;5099804;28;19915;-79
2022/05/08 15:13:44;;;;;;;;;;;;;;;;;;5120230;28;19937;-80
2022/05/08 15:19:00;;;;;;;;;;;;;;;;;;4517266;22;19940;-94
2022/05/08 15:21:26;;;;;;;;;;;;;;;;;;5013630;28;20019;-92
2022/05/08 15:23:51;;;;;;;;;;;;;;;;;;4997617;28;19952;-92
2022/05/08 15:26:18;;;;;;;;;;;;;;;;;;4997632;28;19928;-95
2022/05/08 15:28:44;;;;;;;;;;;;;;;;;;4997842;28;19918;-96
2022/05/08 15:31:10;;;;;;;;;;;;;;;;;;5008112;28;19925;-95
2022/05/08 15:33:35;;;;;;;;;;;;;;;;;;5001808;28;19940;-95
2022/05/08 15:36:01;;;;;;;;;;;;;;;;;;5017059;28;19961;-95
2022/05/08 15:38:27;;;;;;;;;;;;;;;;;;5000873;28;19964;-94
2022/05/08 15:40:52;;;;;;;;;;;;;;;;;;5000950;28;19929;-94
2022/05/08 15:43:17;;;;;;;;;;;;;;;;;;4997349;28;19922;-94
2022/05/08 15:45:43;;;;;;;;;;;;;;;;;;5016832;28;19936;-96
2022/05/08 15:48:09;;;;;;;;;;;;;;;;;;4997266;28;19924;-96
2022/05/08 15:50:35;;;;;;;;;;;;;;;;;;4997125;28;19968;-95
2022/05/08 15:53:00;;;;;;;;;;;;;;;;;;5002148;28;19925;-95
2022/05/08 15:55:26;;;;;;;;;;;;;;;;;;5001926;28;19928;-95
2022/05/08 15:57:52;;;;;;;;;;;;;;;;;;5017603;28;20108;-94
2022/05/08 16:00:18;;;;;;;;;;;;;;;;;;5015185;28;19924;-94
2022/05/08 16:02:43;;;;;;;;;;;;;;;;;;5018099;28;19952;-96
2022/05/08 16:05:09;;;;;;;;;;;;;;;;;;5020505;28;20406;-95
2022/05/08 16:07:35;;;;;;;;;;;;;;;;;;5021457;28;20301;-96
2022/05/08 16:10:00;;;;;;;;;;;;;;;;;;5020925;28;20039;-95
2022/05/08 16:12:26;;;;;;;;;;;;;;;;;;5021790;28;20367;-95
2022/05/08 16:23:27;;;;;;;;;;;;;;;;;;4978558;28;19952;-95
2022/05/08 16:25:52;;;;;;;;;;;;;;;;;;5015197;28;19925;-94
2022/05/08 16:28:17;;;;;;;;;;;;;;;;;;5019519;28;20390;-94
2022/05/08 16:30:43;;;;;;;;;;;;;;;;;;5013341;28;19971;-94
2022/05/08 16:33:09;;;;;;;;;;;;;;;;;;5002169;28;19921;-93
2022/05/08 16:35:34;;;;;;;;;;;;;;;;;;5034425;28;19950;-95
2022/05/08 16:38:00;;;;;;;;;;;;;;;;;;5014737;28;19921;-95
2022/05/08 16:40:33;;;;;;;;;;;;;;;;;;5021060;28;19925;-95
2022/05/08 16:43:03;;;;;;;;;;;;;;;;;;5009125;28;19921;-96
2022/05/08 16:45:29;;;;;;;;;;;;;;;;;;5039351;28;20013;-95
2022/05/08 16:48:06;;;;;;;;;;;;;;;;;;5006855;28;19953;-95
2022/05/08 16:50:34;;;;;;;;;;;;;;;;;;5037795;28;19921;-95
2022/05/08 16:53:11;;;;;;;;;;;;;;;;;;5010033;28;20372;-93
2022/05/08 16:55:37;;;;;;;;;;;;;;;;;;4998749;28;19922;-93
2022/05/08 16:58:02;;;;;;;;;;;;;;;;;;5010405;28;19921;-93
2022/05/08 17:00:28;;;;;;;;;;;;;;;;;;5017292;28;19921;-93
2022/05/08 17:02:53;;;;;;;;;;;;;;;;;;5003939;28;20462;-92
2022/05/08 17:05:18;;;;;;;;;;;;;;;;;;5018214;28;19929;-93
2022/05/08 17:07:44;;;;;;;;;;;;;;;;;;5018173;28;19921;-93
2022/05/08 17:10:10;;;;;;;;;;;;;;;;;;5017638;28;19921;-94
2022/05/08 17:12:35;;;;;;;;;;;;;;;;;;5017360;28;19931;-93
2022/05/08 17:15:01;;;;;;;;;;;;;;;;;;5017990;28;19972;-92
2022/05/08 17:17:27;;;;;;;;;;;;;;;;;;5018283;28;20291;-93
2022/05/08 17:19:52;;;;;;;;;;;;;;;;;;4958381;28;1734325;-94
2022/05/08 17:22:18;;;;;;;;;;;;;;;;;;5036843;28;19921;-93
2022/05/08 17:24:43;;;;;;;;;;;;;;;;;;5019313;28;19921;-95
2022/05/08 17:29:54;;;;;;;;;;;;;;;;;;5033144;28;20008;-95
2022/05/08 17:32:20;;;;;;;;;;;;;;;;;;5021132;28;20367;-95
2022/05/08 17:34:46;;;;;;;;;;;;;;;;;;5020270;28;19922;-96